Time;durP1;ratioP1;P1;durP2;ratioP2;P2;SDS_P1;SDS_P2;PMS_P1;PMS_P2;Temp;Humidity;BMP_temperature;BMP_pressure;BME280_temperature;BME280_humidity;BME280_pressure;Samples;Min_cycle;Max_cycle;Signal;HPM_P1;HPM_P2
2022/06/06 00:00:10;;;;;;;0.30;0.23;;;17.10;99.90;;;;;;5033657;28;20177;-80
2022/06/06 00:02:36;;;;;;;0.20;0.20;;;17.10;99.90;;;;;;5036165;28;20272;-80
2022/06/06 00:05:03;;;;;;;0.30;0.30;;;17.20;99.90;;;;;;5032468;28;20309;-81
2022/06/06 00:07:29;;;;;;;0.20;0.20;;;17.10;99.90;;;;;;5033160;28;20201;-81
2022/06/06 00:09:54;;;;;;;0.30;0.30;;;17.10;99.90;;;;;;5033914;28;20617;-80
2022/06/06 00:12:20;;;;;;;0.30;0.30;;;17.00;99.90;;;;;;5032510;28;20182;-80
2022/06/06 00:14:46;;;;;;;0.10;0.10;;;16.90;99.90;;;;;;5032864;28;20190;-80
2022/06/06 00:17:13;;;;;;;0.30;0.30;;;16.90;99.90;;;;;;5034586;28;20225;-81
2022/06/06 00:19:40;;;;;;;1.23;0.20;;;16.90;99.90;;;;;;5029456;28;20197;-80
2022/06/06 00:22:05;;;;;;;0.23;0.23;;;16.90;99.90;;;;;;5034311;28;20260;-80
2022/06/06 00:24:32;;;;;;;0.57;0.57;;;16.80;99.90;;;;;;5034450;28;20659;-81
2022/06/06 00:26:58;;;;;;;0.70;0.37;;;16.80;99.90;;;;;;5031700;28;20285;-80
2022/06/06 00:29:25;;;;;;;0.20;0.20;;;16.80;99.90;;;;;;5034523;28;20209;-80
2022/06/06 00:34:51;;;;;;;0.20;0.20;;;16.90;99.90;;;;;;5033991;28;20201;-81
2022/06/06 00:37:29;;;;;;;0.10;0.10;;;16.80;99.90;;;;;;5033438;28;20192;-81
2022/06/06 00:39:56;;;;;;;0.20;0.20;;;16.80;99.90;;;;;;5032440;28;21834;-80
2022/06/06 00:42:25;;;;;;;0.10;0.10;;;16.90;99.90;;;;;;5030702;28;20184;-81
2022/06/06 00:45:21;;;;;;;0.47;0.47;;;16.90;99.90;;;;;;5031395;28;20206;-80
2022/06/06 00:48:07;;;;;;;0.40;0.40;;;16.90;99.90;;;;;;5032183;28;20222;-80
2022/06/06 00:50:37;;;;;;;0.67;0.40;;;17.00;99.90;;;;;;5032969;28;20189;-80
2022/06/06 00:53:03;;;;;;;0.50;0.50;;;17.00;99.90;;;;;;5030830;28;20194;-80
2022/06/06 00:55:33;;;;;;;1.40;0.43;;;17.00;99.90;;;;;;5031638;28;20316;-80
2022/06/06 00:58:05;;;;;;;0.20;0.20;;;16.90;99.90;;;;;;5031277;28;20182;-80
2022/06/06 01:00:30;;;;;;;0.40;0.40;;;16.90;99.90;;;;;;5032121;28;20273;-81
2022/06/06 01:02:57;;;;;;;0.30;0.30;;;16.90;99.90;;;;;;5031671;28;20373;-81
2022/06/06 01:05:25;;;;;;;0.20;0.20;;;16.80;99.90;;;;;;5030035;28;20698;-80
2022/06/06 01:07:50;;;;;;;0.30;0.30;;;16.80;99.90;;;;;;5031776;28;20217;-80
2022/06/06 01:10:17;;;;;;;0.20;0.20;;;16.80;99.90;;;;;;5032590;28;20570;-80
2022/06/06 01:12:44;;;;;;;0.20;0.20;;;16.80;99.90;;;;;;5030384;28;20652;-80
2022/06/06 01:15:12;;;;;;;0.70;0.70;;;16.70;99.90;;;;;;5032461;28;20201;-80
2022/06/06 01:17:49;;;;;;;0.20;0.20;;;16.70;99.90;;;;;;5030913;28;20257;-80
2022/06/06 01:20:23;;;;;;;0.50;0.50;;;16.70;99.90;;;;;;5033837;28;20600;-80
2022/06/06 01:23:31;;;;;;;0.23;0.23;;;16.70;99.90;;;;;;5030820;28;20776;-80
2022/06/06 01:26:25;;;;;;;0.20;0.20;;;16.70;99.90;;;;;;5031002;28;20212;-81
2022/06/06 01:29:06;;;;;;;0.20;0.20;;;16.70;99.90;;;;;;5030237;28;20212;-81
2022/06/06 01:31:48;;;;;;;0.30;0.30;;;16.70;99.90;;;;;;5029908;28;20183;-80
2022/06/06 01:34:24;;;;;;;0.43;0.20;;;16.70;99.90;;;;;;5031402;28;20208;-80
2022/06/06 01:36:52;;;;;;;0.30;0.30;;;16.70;99.90;;;;;;5029825;28;20618;-80
2022/06/06 01:39:20;;;;;;;0.40;0.20;;;16.70;99.90;;;;;;5032854;28;20186;-80
2022/06/06 01:42:09;;;;;;;0.43;0.43;;;16.70;99.90;;;;;;5030924;28;20198;-80
2022/06/06 01:44:53;;;;;;;0.20;0.20;;;16.70;99.90;;;;;;5032267;28;20214;-80
2022/06/06 01:47:29;;;;;;;0.40;0.40;;;16.70;99.90;;;;;;5031386;28;20181;-80
2022/06/06 01:49:56;;;;;;;0.20;0.20;;;16.70;99.90;;;;;;5031774;28;20213;-81
2022/06/06 01:52:22;;;;;;;0.97;0.30;;;16.60;99.90;;;;;;5031230;28;20182;-81
2022/06/06 01:54:51;;;;;;;0.30;0.30;;;16.60;99.90;;;;;;5031183;28;20190;-80
2022/06/06 01:57:17;;;;;;;1.90;0.80;;;16.60;99.90;;;;;;5029875;28;20189;-80
2022/06/06 01:59:43;;;;;;;0.20;0.20;;;16.50;99.90;;;;;;5031514;28;20185;-80
2022/06/06 02:02:09;;;;;;;0.40;0.40;;;16.40;99.90;;;;;;5032488;28;20194;-81
2022/06/06 02:04:34;;;;;;;0.40;0.40;;;16.30;99.90;;;;;;5027986;28;20194;-80
2022/06/06 02:07:00;;;;;;;0.90;0.77;;;16.30;99.90;;;;;;5029864;28;20204;-80
2022/06/06 02:09:31;;;;;;;0.20;0.20;;;16.30;99.90;;;;;;5031104;28;20222;-80
2022/06/06 02:11:58;;;;;;;0.27;0.27;;;16.30;99.90;;;;;;5031388;28;20994;-81
2022/06/06 02:14:23;;;;;;;0.40;0.40;;;16.30;99.90;;;;;;5029452;28;20564;-80
2022/06/06 02:16:49;;;;;;;0.20;0.20;;;16.20;99.90;;;;;;5030561;28;20199;-81
2022/06/06 02:19:14;;;;;;;0.47;0.40;;;16.20;99.90;;;;;;5033226;28;20181;-80
2022/06/06 02:21:40;;;;;;;0.60;0.60;;;16.20;99.90;;;;;;5029602;28;20182;-81
2022/06/06 02:24:06;;;;;;;0.20;0.20;;;16.10;99.90;;;;;;5033033;28;20559;-80
2022/06/06 02:26:32;;;;;;;0.40;0.40;;;16.10;99.90;;;;;;5030150;28;20209;-81
2022/06/06 02:28:57;;;;;;;0.40;0.40;;;16.10;99.90;;;;;;5032307;28;20693;-81
2022/06/06 02:31:23;;;;;;;0.33;0.33;;;16.00;99.90;;;;;;5030394;28;20194;-80
2022/06/06 02:33:48;;;;;;;0.47;0.47;;;16.10;99.90;;;;;;5029422;28;20186;-80
2022/06/06 02:36:14;;;;;;;0.30;0.30;;;16.10;99.90;;;;;;5034339;28;20235;-80
2022/06/06 02:38:39;;;;;;;0.40;0.30;;;16.20;99.90;;;;;;5034601;28;20564;-80
2022/06/06 02:41:07;;;;;;;0.30;0.30;;;16.20;99.90;;;;;;5037210;28;20221;-81
2022/06/06 02:43:37;;;;;;;0.20;0.20;;;16.10;99.90;;;;;;5035401;28;20205;-81
2022/06/06 02:46:04;;;;;;;0.47;0.47;;;16.00;99.90;;;;;;5035010;28;20211;-80
2022/06/06 02:48:33;;;;;;;0.97;0.97;;;15.90;99.90;;;;;;5036804;28;20204;-81
2022/06/06 02:51:00;;;;;;;0.30;0.30;;;15.90;99.90;;;;;;5035112;28;20181;-80
2022/06/06 02:53:26;;;;;;;0.30;0.30;;;16.00;99.90;;;;;;5035274;28;20199;-81
2022/06/06 02:55:53;;;;;;;0.73;0.53;;;16.00;99.90;;;;;;5035692;28;20240;-80
2022/06/06 02:58:23;;;;;;;0.67;0.60;;;15.80;99.90;;;;;;5032426;28;20189;-80
2022/06/06 03:00:49;;;;;;;0.33;0.33;;;15.80;99.90;;;;;;5033413;28;20702;-81
2022/06/06 03:03:15;;;;;;;0.50;0.50;;;15.90;99.90;;;;;;5033453;28;20182;-80
2022/06/06 03:06:05;;;;;;;0.30;0.27;;;15.80;99.90;;;;;;5034223;28;20214;-81
2022/06/06 03:09:00;;;;;;;0.70;0.70;;;15.70;99.90;;;;;;5033604;28;20205;-80
2022/06/06 03:11:37;;;;;;;0.63;0.60;;;15.40;99.90;;;;;;5035980;28;20267;-81
2022/06/06 03:14:31;;;;;;;0.30;0.30;;;15.40;99.90;;;;;;5035685;28;20554;-80
2022/06/06 03:23:14;;;;;;;0.87;0.57;;;15.60;99.90;;;;;;5031818;28;20831;-80
2022/06/06 03:26:11;;;;;;;0.97;0.70;;;15.70;99.90;;;;;;5035238;28;20251;-80
2022/06/06 03:29:01;;;;;;;1.37;0.37;;;15.80;99.90;;;;;;5025668;28;20217;-81
2022/06/06 03:31:49;;;;;;;0.37;0.37;;;15.90;99.90;;;;;;5034529;28;20185;-81
2022/06/06 03:34:42;;;;;;;0.97;0.40;;;15.90;99.90;;;;;;5032798;28;20193;-80
2022/06/06 03:37:32;;;;;;;0.50;0.50;;;16.00;99.90;;;;;;5031974;28;20189;-81
2022/06/06 03:40:11;;;;;;;0.73;0.40;;;16.00;99.90;;;;;;5031456;28;20260;-80
2022/06/06 03:43:21;;;;;;;0.40;0.40;;;16.20;99.90;;;;;;5033886;28;20539;-80
2022/06/06 03:46:23;;;;;;;0.27;0.27;;;16.90;99.90;;;;;;4981711;28;20255;-80
2022/06/06 03:49:16;;;;;;;0.50;0.50;;;17.80;99.90;;;;;;5034130;28;20248;-81
2022/06/06 03:52:05;;;;;;;0.40;0.30;;;18.60;99.90;;;;;;5031119;28;20182;-80
2022/06/06 03:54:52;;;;;;;0.57;0.40;;;19.30;99.90;;;;;;5032516;28;20198;-81
2022/06/06 03:57:22;;;;;;;4.23;0.70;;;20.00;99.90;;;;;;5034619;28;20182;-81
2022/06/06 03:59:53;;;;;;;0.40;0.40;;;20.50;99.90;;;;;;5033103;28;20220;-81
2022/06/06 04:02:23;;;;;;;0.57;0.43;;;20.90;99.90;;;;;;5026438;28;20272;-81
2022/06/06 04:04:50;;;;;;;0.50;0.50;;;21.30;99.90;;;;;;5024954;28;20317;-81
2022/06/06 04:07:16;;;;;;;0.30;0.30;;;21.80;99.90;;;;;;5027019;28;20590;-81
2022/06/06 04:09:41;;;;;;;0.40;0.40;;;22.40;99.90;;;;;;5031931;28;20206;-80
2022/06/06 04:12:18;;;;;;;2.40;1.00;;;22.70;99.90;;;;;;5033988;28;20171;-81
2022/06/06 04:15:06;;;;;;;0.80;0.70;;;23.10;99.90;;;;;;5030392;28;20199;-80
2022/06/06 04:17:31;;;;;;;0.47;0.47;;;23.20;99.90;;;;;;5031602;28;20181;-81
2022/06/06 04:20:00;;;;;;;0.60;0.60;;;23.30;99.90;;;;;;5033107;28;20207;-81
2022/06/06 04:22:41;;;;;;;0.37;0.30;;;23.60;99.90;;;;;;5032320;28;20196;-81
2022/06/06 04:25:17;;;;;;;0.40;0.40;;;23.30;99.90;;;;;;5029832;28;20201;-81
2022/06/06 04:28:09;;;;;;;1.87;0.70;;;22.60;99.90;;;;;;5030525;28;20197;-81
2022/06/06 04:30:42;;;;;;;0.77;0.77;;;21.90;99.90;;;;;;5031602;28;20277;-81
2022/06/06 04:33:14;;;;;;;0.30;0.30;;;20.90;99.90;;;;;;5035072;28;20185;-80
2022/06/06 04:35:52;;;;;;;0.90;0.60;;;20.40;99.90;;;;;;5035038;28;20205;-81
2022/06/06 04:38:31;;;;;;;0.23;0.23;;;20.10;99.90;;;;;;5033846;28;20685;-81
2022/06/06 04:41:06;;;;;;;0.83;0.50;;;19.80;99.90;;;;;;5033724;28;20200;-80
2022/06/06 04:44:02;;;;;;;0.80;0.43;;;19.50;99.90;;;;;;5026908;28;20194;-81
2022/06/06 04:46:47;;;;;;;1.07;1.07;;;19.50;99.90;;;;;;5032849;28;20936;-82
2022/06/06 04:49:13;;;;;;;0.53;0.47;;;19.20;99.90;;;;;;5033215;28;20207;-82
2022/06/06 04:51:42;;;;;;;0.77;0.70;;;19.20;99.90;;;;;;5033838;28;20193;-81
2022/06/06 04:54:13;;;;;;;0.20;0.20;;;18.60;99.90;;;;;;5031242;28;20178;-82
2022/06/06 04:56:39;;;;;;;0.73;0.73;;;18.40;99.90;;;;;;5031299;28;20277;-81
2022/06/06 04:59:10;;;;;;;0.40;0.40;;;18.20;99.90;;;;;;5032935;28;20199;-81
2022/06/06 05:01:36;;;;;;;0.30;0.30;;;18.20;99.90;;;;;;5032068;28;20187;-81
2022/06/06 05:04:01;;;;;;;0.60;0.60;;;18.30;99.90;;;;;;5032420;28;20674;-81
2022/06/06 05:07:04;;;;;;;0.60;0.60;;;18.70;99.90;;;;;;5030260;28;20221;-81
2022/06/06 05:09:38;;;;;;;0.50;0.50;;;18.80;99.90;;;;;;5019220;28;20282;-81
2022/06/06 05:12:45;;;;;;;0.63;0.47;;;19.20;99.90;;;;;;5030312;28;20195;-82
2022/06/06 05:15:38;;;;;;;1.43;0.67;;;19.00;99.90;;;;;;5029375;28;20203;-83
2022/06/06 05:18:22;;;;;;;0.40;0.40;;;18.90;99.90;;;;;;5031399;28;20190;-82
2022/06/06 05:20:56;;;;;;;0.60;0.60;;;18.90;99.90;;;;;;5032872;28;20422;-81
2022/06/06 05:23:51;;;;;;;0.43;0.43;;;19.10;99.90;;;;;;5028963;28;20186;-80
2022/06/06 05:26:51;;;;;;;0.70;0.70;;;19.20;99.90;;;;;;5023682;28;20298;-79
2022/06/06 05:29:26;;;;;;;1.20;0.67;;;19.40;99.90;;;;;;5029912;28;20227;-80
2022/06/06 05:32:09;;;;;;;0.30;0.30;;;19.40;99.90;;;;;;5027228;28;20592;-81
2022/06/06 05:34:58;;;;;;;0.60;0.53;;;19.50;99.90;;;;;;5024467;28;20289;-81
2022/06/06 05:37:49;;;;;;;0.50;0.50;;;19.60;99.90;;;;;;5031188;28;20178;-80
2022/06/06 05:40:35;;;;;;;0.77;0.53;;;19.60;99.90;;;;;;5028795;28;20306;-80
2022/06/06 05:43:18;;;;;;;0.57;0.50;;;19.70;99.90;;;;;;5030429;28;20827;-81
2022/06/06 05:45:48;;;;;;;0.17;0.17;;;19.60;99.90;;;;;;5027409;28;20584;-81
2022/06/06 05:48:22;;;;;;;0.27;0.27;;;19.60;99.90;;;;;;5030950;28;20230;-79
2022/06/06 05:51:06;;;;;;;0.70;0.70;;;19.60;99.90;;;;;;5027702;28;20183;-81
2022/06/06 05:53:53;;;;;;;0.70;0.70;;;19.60;99.90;;;;;;5038631;28;20184;-82
2022/06/06 05:56:40;;;;;;;1.20;0.80;;;19.80;99.90;;;;;;5040667;28;20225;-83
2022/06/06 05:59:27;;;;;;;1.27;0.53;;;19.90;99.90;;;;;;5037357;28;20201;-81
2022/06/06 06:02:12;;;;;;;0.60;0.60;;;19.80;99.90;;;;;;5036595;28;20194;-82
2022/06/06 06:04:43;;;;;;;0.63;0.43;;;19.80;99.90;;;;;;5033861;28;20195;-82
2022/06/06 06:07:39;;;;;;;0.90;0.90;;;19.90;99.90;;;;;;5038360;28;20189;-82
2022/06/06 06:10:09;;;;;;;0.50;0.50;;;19.90;99.90;;;;;;5037269;28;20222;-81
2022/06/06 06:12:43;;;;;;;0.57;0.57;;;19.90;99.90;;;;;;5038059;28;20231;-82
2022/06/06 06:15:30;;;;;;;0.47;0.47;;;19.90;99.90;;;;;;5032962;28;20202;-82
2022/06/06 06:17:57;;;;;;;1.40;0.70;;;20.20;99.90;;;;;;5037136;28;20182;-81
2022/06/06 06:20:33;;;;;;;0.80;0.80;;;20.30;99.90;;;;;;5037965;28;20192;-81
2022/06/06 06:23:08;;;;;;;0.83;0.83;;;20.50;99.90;;;;;;5032494;28;20188;-81
2022/06/06 06:25:35;;;;;;;0.77;0.77;;;20.60;99.90;;;;;;5053346;28;20205;-81
2022/06/06 06:28:07;;;;;;;1.70;0.73;;;20.50;99.90;;;;;;5033705;28;20193;-81
2022/06/06 06:30:47;;;;;;;0.67;0.53;;;20.40;99.90;;;;;;5036927;28;20206;-81
2022/06/06 06:33:47;;;;;;;0.57;0.57;;;20.60;99.90;;;;;;5031475;28;20194;-81
2022/06/06 06:36:41;;;;;;;0.30;0.30;;;20.90;99.90;;;;;;5036333;28;20210;-81
2022/06/06 06:39:19;;;;;;;0.30;0.30;;;20.90;99.90;;;;;;5027993;28;20328;-81
2022/06/06 06:42:06;;;;;;;0.53;0.53;;;21.00;99.90;;;;;;5027640;28;20189;-81
2022/06/06 06:44:39;;;;;;;0.60;0.53;;;20.90;99.90;;;;;;5035508;28;20178;-81
2022/06/06 06:47:22;;;;;;;4.03;0.60;;;21.00;99.90;;;;;;5034723;28;20194;-81
2022/06/06 06:50:08;;;;;;;0.93;0.80;;;21.10;99.90;;;;;;5032643;28;20213;-81
2022/06/06 06:53:07;;;;;;;0.60;0.50;;;21.10;99.90;;;;;;5029661;28;20178;-82
2022/06/06 06:55:49;;;;;;;0.77;0.77;;;21.20;99.90;;;;;;5034500;28;20217;-81
2022/06/06 06:58:37;;;;;;;0.77;0.60;;;21.10;99.90;;;;;;5049177;28;20900;-81
2022/06/06 07:01:07;;;;;;;0.63;0.63;;;21.00;99.90;;;;;;5034696;28;20190;-81
2022/06/06 07:09:47;;;;;;;3.83;0.67;;;20.60;99.90;;;;;;5036198;28;20218;-83
2022/06/06 07:12:42;;;;;;;3.10;0.60;;;20.60;99.90;;;;;;5035762;28;20182;-83
2022/06/06 07:15:32;;;;;;;1.03;1.03;;;20.80;99.90;;;;;;5037112;28;20213;-83
2022/06/06 07:18:00;;;;;;;2.13;1.10;;;21.00;99.90;;;;;;5024416;28;20182;-83
2022/06/06 07:20:27;;;;;;;1.10;1.00;;;20.80;99.90;;;;;;5013079;28;20663;-83
2022/06/06 07:22:59;;;;;;;4.17;0.90;;;20.70;99.90;;;;;;5024021;28;20193;-83
2022/06/06 07:25:26;;;;;;;0.50;0.50;;;20.60;99.90;;;;;;5035267;28;20206;-85
2022/06/06 07:27:52;;;;;;;0.50;0.50;;;20.60;99.90;;;;;;5033664;28;20188;-84
2022/06/06 07:30:18;;;;;;;0.50;0.50;;;20.50;99.90;;;;;;5034067;28;20208;-83
2022/06/06 07:33:07;;;;;;;0.43;0.43;;;20.50;99.90;;;;;;5036111;28;20189;-83
2022/06/06 07:35:45;;;;;;;0.80;0.80;;;20.40;99.90;;;;;;5035333;28;20202;-83
2022/06/06 07:38:30;;;;;;;1.00;0.60;;;20.40;99.90;;;;;;5036593;28;20240;-82
2022/06/06 07:41:25;;;;;;;0.60;0.60;;;20.40;99.90;;;;;;5038486;28;20501;-82
2022/06/06 07:44:09;;;;;;;0.43;0.43;;;20.30;99.90;;;;;;5037813;28;20836;-83
2022/06/06 07:46:56;;;;;;;0.50;0.50;;;20.20;99.90;;;;;;5036176;28;20193;-83
2022/06/06 07:49:43;;;;;;;0.53;0.53;;;20.20;99.90;;;;;;5036524;28;20693;-82
2022/06/06 07:52:15;;;;;;;0.60;0.60;;;20.10;99.90;;;;;;5035166;28;20186;-83
2022/06/06 07:55:10;;;;;;;1.00;0.90;;;20.10;99.90;;;;;;5037356;28;20258;-83
2022/06/06 07:57:59;;;;;;;0.73;0.73;;;20.20;99.90;;;;;;5036441;28;20234;-82
2022/06/06 08:00:28;;;;;;;0.50;0.50;;;20.50;99.90;;;;;;5036697;28;20180;-83
2022/06/06 08:02:59;;;;;;;0.40;0.40;;;20.60;99.90;;;;;;5033416;28;20274;-82
2022/06/06 08:06:02;;;;;;;0.53;0.53;;;20.60;99.90;;;;;;5034792;28;20312;-83
2022/06/06 08:08:50;;;;;;;0.77;0.60;;;20.60;99.90;;;;;;5037289;28;20190;-83
2022/06/06 08:11:30;;;;;;;0.60;0.60;;;20.50;99.90;;;;;;5035722;28;20186;-83
2022/06/06 08:14:29;;;;;;;1.40;1.07;;;20.40;99.90;;;;;;5026051;28;20284;-82
2022/06/06 08:17:01;;;;;;;1.47;0.67;;;20.40;99.90;;;;;;5031373;28;20691;-83
2022/06/06 08:19:33;;;;;;;0.47;0.47;;;20.50;99.90;;;;;;5031488;28;20225;-81
2022/06/06 08:22:00;;;;;;;0.30;0.30;;;20.60;99.90;;;;;;5034021;28;20193;-81
2022/06/06 08:24:33;;;;;;;0.60;0.30;;;20.80;99.90;;;;;;5033328;28;20189;-81
2022/06/06 08:27:01;;;;;;;0.70;0.70;;;20.90;99.90;;;;;;5030799;28;20189;-81
2022/06/06 08:29:28;;;;;;;1.57;0.97;;;21.00;99.90;;;;;;5032340;28;20214;-82
2022/06/06 08:31:54;;;;;;;0.60;0.60;;;21.10;99.90;;;;;;5032333;28;20196;-83
2022/06/06 08:34:21;;;;;;;1.90;0.83;;;21.30;99.90;;;;;;5032408;28;20178;-81
2022/06/06 08:37:15;;;;;;;0.70;0.70;;;21.60;99.90;;;;;;5033392;28;20260;-78
2022/06/06 08:40:14;;;;;;;2.73;0.73;;;21.70;99.90;;;;;;5026776;28;20193;-82
2022/06/06 08:43:03;;;;;;;0.70;0.50;;;22.00;99.90;;;;;;5035190;28;20193;-81
2022/06/06 08:45:50;;;;;;;0.53;0.53;;;22.00;99.90;;;;;;5030898;28;20263;-79
2022/06/06 08:48:38;;;;;;;0.57;0.50;;;22.30;99.90;;;;;;5026942;28;20637;-79
2022/06/06 08:51:22;;;;;;;0.60;0.60;;;22.50;99.90;;;;;;5028181;28;20643;-79
2022/06/06 08:53:56;;;;;;;0.93;0.73;;;22.50;99.90;;;;;;5030690;28;20185;-78
2022/06/06 08:56:50;;;;;;;0.93;0.47;;;22.40;99.90;;;;;;5029478;28;20251;-81
2022/06/06 08:59:51;;;;;;;0.93;0.50;;;22.60;99.90;;;;;;5035180;28;20856;-81
2022/06/06 09:02:23;;;;;;;1.67;0.40;;;22.70;99.90;;;;;;5031442;28;20208;-82
2022/06/06 09:05:10;;;;;;;0.40;0.40;;;22.80;99.90;;;;;;5033770;28;20200;-82
2022/06/06 09:07:55;;;;;;;0.20;0.20;;;22.90;99.90;;;;;;5033934;28;20198;-80
2022/06/06 09:10:38;;;;;;;0.60;0.60;;;23.00;99.90;;;;;;5034680;28;20259;-81
2022/06/06 09:13:06;;;;;;;0.60;0.60;;;23.10;99.90;;;;;;5034878;28;20189;-81
2022/06/06 09:15:50;;;;;;;0.33;0.23;;;23.00;99.90;;;;;;5030479;28;20210;-82
2022/06/06 09:18:37;;;;;;;1.27;0.57;;;23.00;99.90;;;;;;5033764;28;20189;-83
2022/06/06 09:21:46;;;;;;;0.37;0.37;;;23.30;99.90;;;;;;5030496;28;20185;-82
2022/06/06 09:24:29;;;;;;;2.80;0.53;;;23.40;99.90;;;;;;5030914;28;20182;-82
2022/06/06 09:27:16;;;;;;;0.50;0.40;;;23.30;99.90;;;;;;5032734;28;20202;-82
2022/06/06 09:29:59;;;;;;;0.30;0.30;;;23.30;99.90;;;;;;5031274;28;20670;-82
2022/06/06 09:33:11;;;;;;;0.20;0.20;;;23.50;99.90;;;;;;5031228;28;20186;-82
2022/06/06 09:36:07;;;;;;;0.40;0.37;;;23.40;99.90;;;;;;5033268;28;20233;-82
2022/06/06 09:39:04;;;;;;;0.40;0.40;;;23.60;99.90;;;;;;5030201;28;20196;-83
2022/06/06 09:41:58;;;;;;;0.97;0.80;;;23.80;99.90;;;;;;5031678;28;20200;-83
2022/06/06 09:44:57;;;;;;;0.77;0.77;;;23.60;99.90;;;;;;5030403;28;20206;-82
2022/06/06 09:47:43;;;;;;;0.57;0.57;;;23.90;99.90;;;;;;5032622;28;20178;-83
2022/06/06 09:50:40;;;;;;;0.80;0.53;;;24.10;99.90;;;;;;5029888;28;21253;-82
2022/06/06 10:00:10;;;;;;;0.93;0.60;;;24.10;99.90;;;;;;5031464;28;20277;-83
2022/06/06 10:03:00;;;;;;;0.43;0.43;;;24.00;99.90;;;;;;5029714;28;20190;-83
2022/06/06 10:06:02;;;;;;;0.63;0.43;;;24.10;99.90;;;;;;5029777;28;20236;-82
2022/06/06 10:08:30;;;;;;;0.50;0.50;;;24.10;99.90;;;;;;5030429;28;20323;-84
2022/06/06 10:11:33;;;;;;;0.40;0.40;;;24.20;99.90;;;;;;5031117;28;20768;-83
2022/06/06 10:14:22;;;;;;;0.23;0.23;;;24.40;99.90;;;;;;5027868;28;20228;-81
2022/06/06 10:16:51;;;;;;;0.73;0.67;;;24.80;99.90;;;;;;5033562;28;20201;-80
2022/06/06 10:19:32;;;;;;;0.77;0.47;;;25.10;99.90;;;;;;5029736;28;20178;-81
2022/06/06 10:22:36;;;;;;;0.20;0.20;;;24.70;99.90;;;;;;5034068;28;20182;-81
2022/06/06 10:25:30;;;;;;;0.57;0.57;;;24.60;99.90;;;;;;5027928;28;20224;-81
2022/06/06 10:28:29;;;;;;;0.40;0.40;;;24.60;99.90;;;;;;5031111;28;20194;-81
2022/06/06 10:31:16;;;;;;;0.40;0.40;;;24.40;99.90;;;;;;5032087;28;20190;-81
2022/06/06 10:34:01;;;;;;;0.40;0.40;;;24.20;99.90;;;;;;5034328;28;20182;-80
2022/06/06 10:36:59;;;;;;;0.40;0.40;;;24.10;99.90;;;;;;5033753;28;20284;-81
2022/06/06 10:39:46;;;;;;;0.90;0.57;;;23.60;99.90;;;;;;5034469;28;20194;-80
2022/06/06 10:42:20;;;;;;;0.60;0.60;;;23.10;99.90;;;;;;5036362;28;20190;-80
2022/06/06 10:45:13;;;;;;;1.37;0.47;;;23.20;99.90;;;;;;5037755;28;20288;-80
2022/06/06 10:48:04;;;;;;;0.57;0.57;;;23.60;99.90;;;;;;5035329;28;20669;-80
2022/06/06 10:53:58;;;;;;;0.40;0.40;;;23.70;99.90;;;;;;5035052;28;20229;-80
2022/06/06 10:56:24;;;;;;;0.73;0.60;;;23.70;99.90;;;;;;5038920;28;20209;-80
2022/06/06 10:59:10;;;;;;;0.30;0.30;;;24.10;99.90;;;;;;5037080;28;20183;-81
2022/06/06 11:02:11;;;;;;;2.63;2.23;;;24.10;99.90;;;;;;5035490;28;20181;-80
2022/06/06 11:04:54;;;;;;;0.30;0.30;;;24.30;99.90;;;;;;5037356;28;20651;-80
2022/06/06 11:07:35;;;;;;;0.37;0.37;;;24.40;99.90;;;;;;5039747;28;20183;-79
2022/06/06 11:10:25;;;;;;;1.07;0.40;;;24.50;99.90;;;;;;5039339;28;20221;-80
2022/06/06 11:13:11;;;;;;;0.53;0.53;;;24.50;99.90;;;;;;5035512;28;20343;-80
2022/06/06 11:15:41;;;;;;;1.10;0.50;;;24.70;99.90;;;;;;5035598;28;20332;-80
2022/06/06 11:18:16;;;;;;;1.43;1.03;;;24.90;99.90;;;;;;5034052;28;20197;-81
2022/06/06 11:21:02;;;;;;;0.20;0.20;;;25.00;99.90;;;;;;5041844;28;20182;-79
2022/06/06 11:23:48;;;;;;;0.73;0.73;;;25.30;99.90;;;;;;5037581;28;20239;-80
2022/06/06 11:26:39;;;;;;;0.40;0.40;;;25.20;99.90;;;;;;5040350;28;21118;-80
2022/06/06 11:29:25;;;;;;;0.33;0.30;;;25.30;99.90;;;;;;5035449;28;20301;-80
2022/06/06 11:32:21;;;;;;;0.53;0.53;;;25.30;99.90;;;;;;5038880;28;20196;-82
2022/06/06 11:35:13;;;;;;;0.40;0.40;;;25.60;99.90;;;;;;5040649;28;20182;-83
2022/06/06 11:37:50;;;;;;;0.53;0.43;;;25.50;99.90;;;;;;5038738;28;20263;-82
2022/06/06 11:40:45;;;;;;;0.30;0.30;;;25.30;99.90;;;;;;5038993;28;20678;-82
2022/06/06 11:43:49;;;;;;;0.40;0.40;;;25.10;99.90;;;;;;5039893;28;20190;-80
2022/06/06 11:46:56;;;;;;;0.20;0.20;;;24.90;99.90;;;;;;5037766;28;20670;-82
2022/06/06 11:49:47;;;;;;;1.03;0.40;;;24.50;99.90;;;;;;5033077;28;20193;-81
2022/06/06 11:52:25;;;;;;;0.33;0.33;;;24.90;99.90;;;;;;5035045;28;20217;-79
2022/06/06 11:55:24;;;;;;;0.30;0.30;;;25.20;99.90;;;;;;5030561;28;21326;-80
2022/06/06 11:58:19;;;;;;;0.33;0.30;;;25.30;99.90;;;;;;5036022;28;20174;-80
2022/06/06 12:01:21;;;;;;;0.50;0.50;;;25.40;99.90;;;;;;5034859;28;20178;-80
2022/06/06 12:04:00;;;;;;;0.30;0.20;;;25.30;99.90;;;;;;5034382;28;20189;-80
2022/06/06 12:07:02;;;;;;;0.20;0.20;;;25.40;99.90;;;;;;5034773;28;20276;-80
2022/06/06 12:10:00;;;;;;;0.30;0.30;;;25.60;99.90;;;;;;5034729;28;20216;-82
2022/06/06 12:12:55;;;;;;;0.47;0.40;;;25.60;99.90;;;;;;5034678;28;20663;-82
2022/06/06 12:15:38;;;;;;;0.77;0.30;;;25.70;99.90;;;;;;5035496;28;20209;-80
2022/06/06 12:18:40;;;;;;;0.87;0.77;;;25.70;99.90;;;;;;5036274;28;20185;-80
2022/06/06 12:21:25;;;;;;;0.30;0.20;;;25.20;99.90;;;;;;5035854;28;20185;-80
2022/06/06 12:24:34;;;;;;;0.20;0.20;;;25.10;99.90;;;;;;5032101;28;20182;-80
2022/06/06 12:27:03;;;;;;;0.73;0.67;;;25.10;99.90;;;;;;5035408;28;20855;-80
2022/06/06 12:30:02;;;;;;;0.73;0.47;;;25.60;99.90;;;;;;5035011;28;20201;-80
2022/06/06 12:32:36;;;;;;;0.27;0.27;;;26.20;99.90;;;;;;5036166;28;20178;-80
2022/06/06 12:35:10;;;;;;;0.40;0.40;;;26.70;99.90;;;;;;5039942;28;20209;-80
2022/06/06 12:37:45;;;;;;;0.30;0.30;;;26.90;99.90;;;;;;5032921;28;20185;-80
2022/06/06 12:40:52;;;;;;;0.50;0.50;;;26.70;99.90;;;;;;5034685;28;20185;-80
2022/06/06 12:43:44;;;;;;;0.20;0.20;;;26.70;99.90;;;;;;5013852;28;20194;-80
2022/06/06 12:46:48;;;;;;;0.67;0.67;;;26.50;99.90;;;;;;5032300;28;20209;-80
2022/06/06 12:49:13;;;;;;;2.27;0.53;;;26.30;99.90;;;;;;5032705;28;20307;-80
2022/06/06 12:51:52;;;;;;;1.83;0.30;;;26.10;99.90;;;;;;5030434;28;20225;-80
2022/06/06 12:54:22;;;;;;;0.27;0.27;;;26.30;99.90;;;;;;5034847;28;20681;-80
2022/06/06 12:56:59;;;;;;;0.23;0.23;;;26.20;99.90;;;;;;5033015;28;21220;-80
2022/06/06 12:59:25;;;;;;;0.10;0.10;;;26.20;99.90;;;;;;5035815;28;20546;-80
2022/06/06 13:02:28;;;;;;;0.63;0.33;;;26.00;99.90;;;;;;5030238;28;20336;-80
2022/06/06 13:05:11;;;;;;;0.93;0.60;;;25.70;99.90;;;;;;5033226;28;20197;-80
2022/06/06 13:08:08;;;;;;;0.30;0.30;;;25.50;99.90;;;;;;5030761;28;20192;-80
2022/06/06 13:10:55;;;;;;;0.30;0.30;;;25.70;99.90;;;;;;5035897;28;20315;-81
2022/06/06 13:13:44;;;;;;;0.43;0.43;;;25.70;99.90;;;;;;5034878;28;20177;-81
2022/06/06 13:16:31;;;;;;;3.83;0.47;;;25.50;99.90;;;;;;5032546;28;20231;-81
2022/06/06 13:19:30;;;;;;;0.50;0.50;;;25.20;99.90;;;;;;5034082;28;21028;-81
2022/06/06 13:22:22;;;;;;;0.80;0.40;;;25.20;99.90;;;;;;5031974;28;20187;-81
2022/06/06 13:25:04;;;;;;;0.50;0.50;;;25.20;99.90;;;;;;5026138;28;20197;-81
2022/06/06 13:27:59;;;;;;;0.30;0.30;;;25.10;99.90;;;;;;5032979;28;20186;-81
2022/06/06 13:30:46;;;;;;;0.10;0.10;;;25.10;99.90;;;;;;5030835;28;20614;-81
2022/06/06 13:33:53;;;;;;;0.20;0.20;;;25.20;99.90;;;;;;5034912;28;20261;-81
2022/06/06 13:36:37;;;;;;;0.30;0.20;;;25.40;99.90;;;;;;5032571;28;20584;-81
2022/06/06 13:39:31;;;;;;;0.20;0.20;;;25.10;99.90;;;;;;5033416;28;20602;-81
2022/06/06 13:42:25;;;;;;;0.40;0.40;;;24.90;99.90;;;;;;5031991;28;20201;-81
2022/06/06 13:45:03;;;;;;;0.20;0.20;;;24.60;99.90;;;;;;5024088;28;20209;-82
2022/06/06 13:47:53;;;;;;;0.20;0.20;;;24.90;99.90;;;;;;5035411;28;20189;-82
2022/06/06 13:50:37;;;;;;;0.47;0.47;;;25.30;99.90;;;;;;5035565;28;20363;-82
2022/06/06 13:53:28;;;;;;;0.23;0.23;;;25.70;99.90;;;;;;5033363;28;21228;-82
2022/06/06 13:56:22;;;;;;;0.67;0.67;;;25.60;99.90;;;;;;5045578;28;20209;-83
2022/06/06 13:59:04;;;;;;;0.20;0.20;;;25.60;99.90;;;;;;5030269;28;20997;-82
2022/06/06 14:01:58;;;;;;;1.57;0.30;;;25.10;99.90;;;;;;5035787;28;20260;-84
2022/06/06 14:05:05;;;;;;;0.27;0.27;;;25.10;99.90;;;;;;5034293;28;20182;-84
2022/06/06 14:07:49;;;;;;;0.40;0.40;;;24.80;99.90;;;;;;5031445;28;20734;-82
2022/06/06 14:10:18;;;;;;;0.43;0.33;;;24.80;99.90;;;;;;5038766;28;20272;-81
2022/06/06 14:13:02;;;;;;;0.40;0.40;;;25.00;99.90;;;;;;5035741;28;20185;-82
2022/06/06 14:15:28;;;;;;;0.50;0.50;;;25.20;99.90;;;;;;5034704;28;20289;-82
2022/06/06 14:18:06;;;;;;;1.10;0.80;;;25.00;99.90;;;;;;5039863;28;20217;-83
2022/06/06 14:20:45;;;;;;;0.40;0.30;;;24.90;99.90;;;;;;5035420;28;20182;-81
2022/06/06 14:23:26;;;;;;;0.40;0.40;;;24.50;99.90;;;;;;5033869;28;20205;-82